createdAt,value
2023-03-25T00:00:18.415Z,101668.09
2023-03-25T00:02:47.623Z,101671.84
2023-03-25T00:05:16.521Z,101665.72
2023-03-25T00:07:44.773Z,101674.78
2023-03-25T00:10:13.918Z,101679.50
2023-03-25T00:12:42.796Z,101683.41
2023-03-25T00:15:11.838Z,101681.94
2023-03-25T00:17:39.437Z,101686.81
2023-03-25T00:20:10.014Z,101685.84
2023-03-25T00:22:41.296Z,101680.47
2023-03-25T00:25:19.401Z,101679.22
2023-03-25T00:27:49.017Z,101679.22
2023-03-25T00:30:17.672Z,101685.56
2023-03-25T00:32:50.091Z,101679.69
2023-03-25T00:35:21.446Z,101677.00
2023-03-25T00:37:52.538Z,101686.03
2023-03-25T00:40:19.626Z,101675.66
2023-03-25T00:42:50.433Z,101663.28
2023-03-25T00:45:18.339Z,101669.66
2023-03-25T00:47:45.822Z,101666.22
2023-03-25T00:50:13.185Z,101665.22
2023-03-25T00:52:40.570Z,101680.53
2023-03-25T00:55:08.205Z,101679.56
2023-03-25T00:57:35.263Z,101683.75
2023-03-25T01:00:06.419Z,101687.16
2023-03-25T01:02:34.029Z,101685.22
2023-03-25T01:05:02.189Z,101704.00
2023-03-25T01:07:32.285Z,101702.28
2023-03-25T01:09:59.848Z,101703.38
2023-03-25T01:12:27.290Z,101713.47
2023-03-25T01:14:54.834Z,101702.75
2023-03-25T01:17:21.801Z,101685.91
2023-03-25T01:19:48.750Z,101686.34
2023-03-25T01:22:15.846Z,101700.53
2023-03-25T01:24:42.868Z,101705.03
2023-03-25T01:27:09.782Z,101700.75
2023-03-25T01:29:36.783Z,101699.25
2023-03-25T01:32:03.938Z,101694.84
2023-03-25T01:34:33.423Z,101692.31
2023-03-25T01:37:01.190Z,101696.06
2023-03-25T01:39:28.237Z,101722.91
2023-03-25T01:41:55.442Z,101739.69
2023-03-25T01:44:22.787Z,101742.59
2023-03-25T01:46:53.964Z,101738.19
2023-03-25T01:49:34.222Z,101738.19
2023-03-25T01:52:05.634Z,101738.63
2023-03-25T01:54:33.739Z,101737.78
2023-03-25T01:57:01.487Z,101718.38
2023-03-25T01:59:29.536Z,101705.06
2023-03-25T02:02:00.000Z,101703.22
2023-03-25T02:04:39.541Z,101705.34
2023-03-25T02:07:10.983Z,101705.34
2023-03-25T02:09:39.024Z,101706.47
2023-03-25T02:12:07.789Z,101706.03
2023-03-25T02:14:37.683Z,101711.53
2023-03-25T02:17:27.404Z,101707.97
2023-03-25T02:20:13.952Z,101713.56
2023-03-25T02:22:49.968Z,101713.56
2023-03-25T02:25:55.066Z,101700.91
2023-03-25T02:28:48.726Z,101697.47
2023-03-25T02:31:43.440Z,101709.91
2023-03-25T02:34:19.675Z,101705.63
2023-03-25T02:37:09.424Z,101711.09
2023-03-25T02:39:59.952Z,101719.16
2023-03-25T02:42:38.270Z,101714.00
2023-03-25T02:45:13.544Z,101705.22
2023-03-25T02:47:47.718Z,101700.94
2023-03-25T02:50:30.290Z,101700.06
2023-03-25T02:53:06.541Z,101701.13
2023-03-25T02:55:34.875Z,101709.28
2023-03-25T02:58:07.712Z,101704.16
2023-03-25T03:00:38.473Z,101710.81
2023-03-25T03:03:08.048Z,101711.03
2023-03-25T03:05:38.637Z,101715.53
2023-03-25T03:08:19.121Z,101717.91
2023-03-25T03:11:12.368Z,101715.97
2023-03-25T03:13:44.841Z,101725.41
2023-03-25T03:16:39.525Z,101713.50
2023-03-25T03:19:21.445Z,101711.88
2023-03-25T03:22:02.408Z,101724.13
2023-03-25T03:24:35.097Z,101718.22
2023-03-25T03:27:15.105Z,101728.19
2023-03-25T03:29:49.273Z,101727.97
2023-03-25T03:32:22.952Z,101725.19
2023-03-25T03:34:49.921Z,101729.28
2023-03-25T03:37:30.085Z,101736.13
2023-03-25T03:39:58.212Z,101737.84
2023-03-25T03:42:34.070Z,101741.69
2023-03-25T03:45:05.377Z,101744.19
2023-03-25T03:47:40.007Z,101751.25
2023-03-25T03:50:11.853Z,101749.84
2023-03-25T03:52:51.714Z,101750.81
2023-03-25T03:55:29.561Z,101753.91
2023-03-25T03:58:06.242Z,101747.50
2023-03-25T04:00:40.362Z,101736.97
2023-03-25T04:03:17.227Z,101736.88
2023-03-25T04:05:52.565Z,101742.22
2023-03-25T04:08:29.897Z,101736.13
2023-03-25T04:11:01.734Z,101743.59
2023-03-25T04:13:35.021Z,101741.06
2023-03-25T04:16:02.079Z,101746.59
2023-03-25T04:18:28.962Z,101760.78
2023-03-25T04:20:56.273Z,101759.06
2023-03-25T04:23:23.196Z,101764.41
2023-03-25T04:25:53.552Z,101757.31
2023-03-25T04:28:20.730Z,101759.28
2023-03-25T04:30:55.673Z,101771.16
2023-03-25T04:33:24.176Z,101774.56
2023-03-25T04:35:51.890Z,101777.47
2023-03-25T04:38:19.951Z,101774.03
2023-03-25T04:40:47.700Z,101781.34
2023-03-25T04:43:16.355Z,101781.34
2023-03-25T04:45:49.660Z,101780.47
2023-03-25T04:48:24.466Z,101783.25
2023-03-25T04:50:56.047Z,101779.06
2023-03-25T04:53:22.946Z,101778.97
2023-03-25T04:55:50.571Z,101776.38
2023-03-25T04:58:18.111Z,101776.59
2023-03-25T05:00:47.660Z,101780.03
2023-03-25T05:03:16.015Z,101780.25
2023-03-25T05:05:42.992Z,101791.59
2023-03-25T05:08:11.715Z,101790.72
2023-03-25T05:10:39.052Z,101792.47
2023-03-25T05:13:07.673Z,101788.06
2023-03-25T05:15:39.822Z,101798.03
2023-03-25T05:18:14.960Z,101799.94
2023-03-25T05:20:44.244Z,101814.28
2023-03-25T05:23:18.015Z,101812.69
2023-03-25T05:25:51.004Z,101818.13
2023-03-25T05:28:18.981Z,101807.44
2023-03-25T05:31:11.136Z,101802.06
2023-03-25T05:33:45.640Z,101795.94
2023-03-25T05:36:13.930Z,101803.03
2023-03-25T05:38:41.925Z,101808.38
2023-03-25T05:41:12.239Z,101812.88
2023-03-25T05:43:39.217Z,101810.41
2023-03-25T05:46:06.551Z,101814.69
2023-03-25T05:48:33.634Z,101825.41
2023-03-25T05:51:04.534Z,101828.09
2023-03-25T05:53:34.207Z,101834.00
2023-03-25T05:56:01.385Z,101841.72
2023-03-25T05:58:28.266Z,101845.19
2023-03-25T06:00:55.582Z,101846.09
2023-03-25T06:03:26.441Z,101840.53
2023-03-25T06:05:53.766Z,101845.59
2023-03-25T06:08:26.187Z,101843.91
2023-03-25T06:10:59.093Z,101843.13
2023-03-25T06:13:26.079Z,101847.84
2023-03-25T06:15:57.459Z,101841.00
2023-03-25T06:18:25.021Z,101842.31
2023-03-25T06:20:54.825Z,101846.28
2023-03-25T06:23:24.986Z,101851.16
2023-03-25T06:25:52.792Z,101850.75
2023-03-25T06:28:19.976Z,101852.81
2023-03-25T06:30:48.294Z,101849.59
2023-03-25T06:33:42.962Z,101850.34
2023-03-25T06:36:08.135Z,101857.78
2023-03-25T06:38:35.074Z,101863.16
2023-03-25T06:41:11.013Z,101874.84
2023-03-25T06:43:39.132Z,101876.59
2023-03-25T06:46:22.315Z,101885.25
2023-03-25T06:49:07.991Z,101890.06
2023-03-25T06:51:35.049Z,101895.44
2023-03-25T06:54:01.963Z,101895.59
2023-03-25T06:56:28.988Z,101894.84
2023-03-25T06:58:55.954Z,101906.44
2023-03-25T07:01:22.875Z,101913.69
2023-03-25T07:03:50.335Z,101913.50
2023-03-25T07:06:20.461Z,101912.88
2023-03-25T07:08:48.167Z,101920.09
2023-03-25T07:11:16.789Z,101917.81
2023-03-25T07:13:43.730Z,101921.69
2023-03-25T07:16:11.665Z,101921.22
2023-03-25T07:18:41.678Z,101937.94
2023-03-25T07:21:08.594Z,101930.53
2023-03-25T07:23:35.495Z,101933.63
2023-03-25T07:26:02.448Z,101942.97
2023-03-25T07:28:29.385Z,101940.94
2023-03-25T07:30:56.316Z,101949.25
2023-03-25T07:33:23.288Z,101939.63
2023-03-25T07:35:50.659Z,101955.22
2023-03-25T07:38:17.812Z,101948.28
2023-03-25T07:40:44.720Z,101950.00
2023-03-25T07:43:17.400Z,101951.69
2023-03-25T07:45:54.172Z,101966.75
2023-03-25T07:48:22.864Z,101961.78
2023-03-25T07:50:51.965Z,101968.03
2023-03-25T07:53:19.355Z,101975.88
2023-03-25T07:55:46.648Z,101989.81
2023-03-25T07:58:13.686Z,101974.81
2023-03-25T08:00:40.615Z,101983.06
2023-03-25T08:03:07.677Z,101986.47
2023-03-25T08:05:34.641Z,101989.91
2023-03-25T08:08:01.632Z,101981.28
2023-03-25T08:10:29.336Z,101984.22
2023-03-25T08:12:56.594Z,101984.88
2023-03-25T08:15:24.990Z,101986.88
2023-03-25T08:17:54.774Z,101986.13
2023-03-25T08:20:21.837Z,101985.06
2023-03-25T08:22:48.817Z,101983.22
2023-03-25T08:25:16.022Z,101986.44
2023-03-25T08:27:43.263Z,101980.91
2023-03-25T08:30:11.018Z,101977.50
2023-03-25T08:32:38.671Z,101971.00
2023-03-25T08:35:06.642Z,101969.56
2023-03-25T08:37:38.050Z,101971.09
2023-03-25T08:40:09.923Z,101967.75
2023-03-25T08:42:37.899Z,101976.91
2023-03-25T08:45:06.045Z,101968.97
2023-03-25T08:47:33.052Z,101975.22
2023-03-25T08:50:00.138Z,101975.09
2023-03-25T08:52:27.090Z,101972.38
2023-03-25T08:54:54.056Z,101973.59
2023-03-25T08:57:21.272Z,101975.56
2023-03-25T08:59:48.437Z,101978.63
2023-03-25T09:02:15.523Z,101974.94
2023-03-25T09:04:42.797Z,101986.06
2023-03-25T09:07:12.591Z,101986.56
2023-03-25T09:09:41.313Z,101986.41
2023-03-25T09:12:08.989Z,101989.72
2023-03-25T09:14:36.494Z,101983.28
2023-03-25T09:17:04.583Z,101991.69
2023-03-25T09:19:31.741Z,101990.84
2023-03-25T09:21:58.908Z,101989.63
2023-03-25T09:24:26.060Z,101989.44
2023-03-25T09:26:52.975Z,101992.00
2023-03-25T09:29:19.916Z,101991.16
2023-03-25T09:31:46.893Z,101993.94
2023-03-25T09:34:15.714Z,101995.63
2023-03-25T09:36:43.336Z,101992.81
2023-03-25T09:39:10.435Z,102005.13
2023-03-25T09:41:37.440Z,101999.22
2023-03-25T09:44:27.611Z,101997.25
2023-03-25T09:46:56.774Z,102007.31
2023-03-25T09:49:28.018Z,102006.13
2023-03-25T09:51:56.280Z,102003.34
2023-03-25T09:54:31.903Z,101995.97
2023-03-25T09:57:12.377Z,102003.84
2023-03-25T09:59:49.645Z,102000.28
2023-03-25T10:02:46.770Z,101995.38
2023-03-25T10:05:34.187Z,101986.13
2023-03-25T10:08:29.961Z,101974.75
2023-03-25T10:11:27.670Z,101989.19
2023-03-25T10:14:06.698Z,101982.06
2023-03-25T10:16:41.175Z,101992.09
2023-03-25T10:19:40.504Z,102001.84
2023-03-25T10:22:16.501Z,101990.78
2023-03-25T10:25:00.972Z,101985.94
2023-03-25T10:27:41.695Z,101993.50
2023-03-25T10:30:18.978Z,101987.63
2023-03-25T10:32:52.037Z,101989.31
2023-03-25T10:35:30.130Z,101984.34
2023-03-25T10:38:13.917Z,101984.78
2023-03-25T10:40:50.610Z,101977.84
2023-03-25T10:43:23.583Z,101972.78
2023-03-25T10:45:56.104Z,101972.19
2023-03-25T10:48:24.725Z,101974.31
2023-03-25T10:50:55.952Z,101977.97
2023-03-25T10:53:26.012Z,101978.97
2023-03-25T10:56:15.511Z,101987.41
2023-03-25T10:58:45.904Z,101978.06
2023-03-25T11:01:17.934Z,101972.38
2023-03-25T11:03:49.368Z,101992.38
2023-03-25T11:06:22.601Z,101973.81
2023-03-25T11:09:08.192Z,101973.41
2023-03-25T11:11:36.811Z,101969.50
2023-03-25T11:14:04.304Z,101983.53
2023-03-25T11:16:44.202Z,101964.44
2023-03-25T11:19:19.173Z,101961.47
2023-03-25T11:21:49.036Z,101960.97
2023-03-25T11:24:19.432Z,101962.22
2023-03-25T11:26:49.235Z,101963.56
2023-03-25T11:29:23.763Z,101952.56
2023-03-25T11:32:13.643Z,101955.97
2023-03-25T11:34:43.506Z,101947.81
2023-03-25T11:37:19.387Z,101951.63
2023-03-25T11:39:57.439Z,101946.78
2023-03-25T11:42:49.977Z,101942.41
2023-03-25T11:45:46.547Z,101935.94
2023-03-25T11:48:30.829Z,101932.47
2023-03-25T11:51:01.699Z,101928.53
2023-03-25T11:53:32.609Z,101919.72
2023-03-25T11:56:04.716Z,101916.06
2023-03-25T11:58:36.231Z,101919.34
2023-03-25T12:01:06.848Z,101927.78
2023-03-25T12:03:35.444Z,101900.34
2023-03-25T12:06:11.746Z,101920.28
2023-03-25T12:08:51.713Z,101912.41
2023-03-25T12:11:21.925Z,101904.78
2023-03-25T12:14:00.961Z,101906.00
2023-03-25T12:17:03.281Z,101901.94
2023-03-25T12:20:08.380Z,101887.44
2023-03-25T12:23:16.256Z,101891.53
2023-03-25T12:26:04.634Z,101868.53
2023-03-25T12:28:47.802Z,101875.31
2023-03-25T12:31:32.317Z,101871.59
2023-03-25T12:34:07.810Z,101850.84
2023-03-25T12:37:10.747Z,101856.31
2023-03-25T12:39:52.578Z,101845.16
2023-03-25T12:42:38.186Z,101835.25
2023-03-25T12:45:24.648Z,101844.84
2023-03-25T12:48:50.150Z,101826.63
2023-03-25T12:51:39.918Z,101827.69
2023-03-25T12:54:28.697Z,101839.06
2023-03-25T12:57:31.824Z,101816.09
2023-03-25T13:00:16.797Z,101819.69
2023-03-25T13:02:46.471Z,101821.56
2023-03-25T13:05:27.283Z,101811.34
2023-03-25T13:08:17.812Z,101819.16
2023-03-25T13:10:49.185Z,101808.19
2023-03-25T13:13:24.391Z,101800.75
2023-03-25T13:16:10.054Z,101797.06
2023-03-25T13:18:50.375Z,101794.41
2023-03-25T13:21:27.255Z,101796.78
2023-03-25T13:24:00.415Z,101787.97
2023-03-25T13:26:30.240Z,101787.00
2023-03-25T13:29:02.318Z,101783.25
2023-03-25T13:31:50.062Z,101780.41
2023-03-25T13:34:41.301Z,101781.56
2023-03-25T13:37:23.533Z,101773.56
2023-03-25T13:40:15.015Z,101770.94
2023-03-25T13:43:02.573Z,101763.19
2023-03-25T13:45:37.376Z,101758.69
2023-03-25T13:48:17.777Z,101768.16
2023-03-25T13:50:45.053Z,101758.31
2023-03-25T13:53:22.450Z,101755.78
2023-03-25T13:56:21.967Z,101761.75
2023-03-25T13:58:49.223Z,101760.56
2023-03-25T14:01:31.435Z,101763.25
2023-03-25T14:04:22.445Z,101753.22
2023-03-25T14:07:10.154Z,101747.31
2023-03-25T14:10:08.279Z,101756.41
2023-03-25T14:12:37.436Z,101748.41
2023-03-25T14:15:11.654Z,101758.75
2023-03-25T14:17:39.855Z,101762.41
2023-03-25T14:20:10.710Z,101757.31
2023-03-25T14:22:43.760Z,101746.94
2023-03-25T14:25:48.220Z,101748.78
2023-03-25T14:28:31.685Z,101745.06
2023-03-25T14:31:09.031Z,101740.78
2023-03-25T14:34:14.097Z,101737.69
2023-03-25T14:36:41.145Z,101741.88
2023-03-25T14:39:12.648Z,101730.22
2023-03-25T14:42:03.247Z,101726.81
2023-03-25T14:44:41.669Z,101717.69
2023-03-25T14:47:20.773Z,101725.38
2023-03-25T14:49:54.381Z,101713.00
2023-03-25T14:52:30.185Z,101707.59
2023-03-25T14:54:58.671Z,101707.31
2023-03-25T14:57:29.801Z,101710.72
2023-03-25T15:00:09.555Z,101699.91
2023-03-25T15:02:38.195Z,101704.50
2023-03-25T15:05:20.492Z,101701.19
2023-03-25T15:08:11.628Z,101701.34
2023-03-25T15:10:42.485Z,101692.22
2023-03-25T15:13:27.484Z,101686.56
2023-03-25T15:16:00.977Z,101685.72
2023-03-25T15:18:37.324Z,101687.09
2023-03-25T15:21:10.168Z,101689.94
2023-03-25T15:24:11.378Z,101689.09
2023-03-25T15:26:45.733Z,101681.72
2023-03-25T15:29:24.526Z,101668.63
2023-03-25T15:32:29.659Z,101666.63
2023-03-25T15:35:36.865Z,101671.75
2023-03-25T15:39:11.272Z,101657.81
2023-03-25T15:42:02.440Z,101671.31
2023-03-25T15:45:03.098Z,101671.47
2023-03-25T15:48:07.285Z,101654.13
2023-03-25T15:50:37.849Z,101647.56
2023-03-25T15:53:13.673Z,101624.53
2023-03-25T15:55:54.347Z,101636.06
2023-03-25T15:58:54.552Z,101634.50
2023-03-25T16:01:29.506Z,101631.34
2023-03-25T16:04:02.338Z,101624.41
2023-03-25T16:06:33.874Z,101627.94
2023-03-25T16:09:03.096Z,101620.00
2023-03-25T16:11:30.052Z,101611.97
2023-03-25T16:14:03.567Z,101602.06
2023-03-25T16:16:36.069Z,101593.25
2023-03-25T16:19:08.511Z,101579.75
2023-03-25T16:21:36.613Z,101576.47
2023-03-25T16:24:07.913Z,101583.28
2023-03-25T16:26:47.140Z,101585.88
2023-03-25T16:29:24.395Z,101591.00
2023-03-25T16:32:00.679Z,101583.31
2023-03-25T16:34:34.469Z,101583.91
2023-03-25T16:37:02.847Z,101584.88
2023-03-25T16:39:34.387Z,101565.97
2023-03-25T16:42:07.066Z,101571.38
2023-03-25T16:44:34.695Z,101567.69
2023-03-25T16:47:02.439Z,101567.81
2023-03-25T16:49:35.115Z,101572.06
2023-03-25T16:52:08.203Z,101578.69
2023-03-25T16:54:38.491Z,101566.47
2023-03-25T16:57:08.942Z,101563.09
2023-03-25T16:59:38.142Z,101563.34
2023-03-25T17:02:40.996Z,101564.19
2023-03-25T17:05:23.575Z,101559.94
2023-03-25T17:07:58.305Z,101552.81
2023-03-25T17:10:27.149Z,101553.63
2023-03-25T17:13:03.217Z,101553.63
2023-03-25T17:15:34.576Z,101554.19
2023-03-25T17:18:06.170Z,101551.38
2023-03-25T17:20:45.832Z,101557.91
2023-03-25T17:23:35.611Z,101553.09
2023-03-25T17:26:07.676Z,101547.69
2023-03-25T17:28:53.773Z,101547.69
2023-03-25T17:31:31.256Z,101549.09
2023-03-25T17:34:26.473Z,101553.63
2023-03-25T17:37:03.644Z,101555.19
2023-03-25T17:39:33.171Z,101554.16
2023-03-25T17:42:06.071Z,101553.47
2023-03-25T17:44:38.533Z,101541.66
2023-03-25T17:47:07.251Z,101547.06
2023-03-25T17:49:34.741Z,101544.38
2023-03-25T17:52:01.977Z,101553.59
2023-03-25T17:54:28.980Z,101545.91
2023-03-25T17:56:56.119Z,101547.63
2023-03-25T17:59:28.119Z,101541.88
2023-03-25T18:01:55.337Z,101539.72
2023-03-25T18:04:23.170Z,101544.13
2023-03-25T18:06:50.393Z,101541.72
2023-03-25T18:09:22.212Z,101543.78
2023-03-25T18:11:56.026Z,101552.03
2023-03-25T18:14:24.217Z,101561.38
2023-03-25T18:16:51.625Z,101555.13
2023-03-25T18:19:21.082Z,101553.13
2023-03-25T18:21:48.082Z,101555.97
2023-03-25T18:24:15.285Z,101551.41
2023-03-25T18:26:43.948Z,101556.97
2023-03-25T18:29:18.001Z,101561.63
2023-03-25T18:31:45.361Z,101560.19
2023-03-25T18:34:13.314Z,101553.34
2023-03-25T18:36:41.450Z,101556.06
2023-03-25T18:39:14.557Z,101555.78
2023-03-25T18:41:41.940Z,101556.16
2023-03-25T18:44:09.709Z,101560.47
2023-03-25T18:46:37.422Z,101562.41
2023-03-25T18:49:10.950Z,101562.94
2023-03-25T18:51:37.896Z,101564.94
2023-03-25T18:54:04.824Z,101558.69
2023-03-25T18:56:31.993Z,101556.13
2023-03-25T18:58:58.996Z,101570.31
2023-03-25T19:01:26.734Z,101570.56
2023-03-25T19:03:53.646Z,101571.38
2023-03-25T19:06:20.551Z,101574.47
2023-03-25T19:08:47.556Z,101578.00
2023-03-25T19:11:21.697Z,101587.53
2023-03-25T19:13:50.618Z,101576.75
2023-03-25T19:16:18.158Z,101568.56
2023-03-25T19:18:47.319Z,101577.03
2023-03-25T19:21:17.255Z,101572.75
2023-03-25T19:23:44.301Z,101571.19
2023-03-25T19:26:12.239Z,101568.50
2023-03-25T19:28:39.330Z,101565.06
2023-03-25T19:31:06.525Z,101565.78
2023-03-25T19:33:34.100Z,101564.09
2023-03-25T19:36:02.127Z,101564.59
2023-03-25T19:38:30.653Z,101560.34
2023-03-25T19:41:12.270Z,101563.75
2023-03-25T19:43:39.366Z,101554.41
2023-03-25T19:46:07.173Z,101549.50
2023-03-25T19:48:35.183Z,101548.38
2023-03-25T19:51:02.853Z,101551.69
2023-03-25T19:53:30.006Z,101548.53
2023-03-25T19:56:01.300Z,101547.41
2023-03-25T19:58:29.039Z,101541.16
2023-03-25T20:00:56.146Z,101543.72
2023-03-25T20:03:24.089Z,101549.84
2023-03-25T20:06:02.457Z,101546.28
2023-03-25T20:08:30.501Z,101552.66
2023-03-25T20:10:58.724Z,101538.34
2023-03-25T20:13:26.656Z,101537.47
2023-03-25T20:15:53.985Z,101537.59
2023-03-25T20:18:21.289Z,101541.31
2023-03-25T20:20:48.150Z,101545.09
2023-03-25T20:23:15.059Z,101548.75
2023-03-25T20:25:42.326Z,101541.69
2023-03-25T20:28:09.394Z,101539.97
2023-03-25T20:30:36.428Z,101531.16
2023-03-25T20:33:04.015Z,101533.88
2023-03-25T20:35:31.872Z,101521.25
2023-03-25T20:37:59.155Z,101522.22
2023-03-25T20:40:37.327Z,101521.78
2023-03-25T20:43:14.510Z,101522.03
2023-03-25T20:45:42.736Z,101517.53
2023-03-25T20:48:09.627Z,101517.78
2023-03-25T20:50:37.200Z,101508.97
2023-03-25T20:53:04.524Z,101513.22
2023-03-25T20:55:31.595Z,101509.72
2023-03-25T20:57:58.510Z,101508.72
2023-03-25T21:00:25.430Z,101503.31
2023-03-25T21:02:52.714Z,101510.53
2023-03-25T21:05:19.930Z,101502.16
2023-03-25T21:07:47.016Z,101498.72
2023-03-25T21:10:13.982Z,101502.41
2023-03-25T21:12:44.709Z,101496.19
2023-03-25T21:15:13.441Z,101491.63
2023-03-25T21:17:40.944Z,101485.63
2023-03-25T21:20:09.278Z,101481.63
2023-03-25T21:22:42.848Z,101484.06
2023-03-25T21:25:10.721Z,101480.75
2023-03-25T21:27:39.604Z,101479.31
2023-03-25T21:30:12.017Z,101487.53
2023-03-25T21:32:39.967Z,101488.75
2023-03-25T21:35:08.160Z,101490.00
2023-03-25T21:37:38.038Z,101490.00
2023-03-25T21:40:08.332Z,101484.88
2023-03-25T21:42:38.558Z,101485.16
2023-03-25T21:45:07.971Z,101487.09
2023-03-25T21:47:36.266Z,101474.91
2023-03-25T21:50:10.107Z,101480.28
2023-03-25T21:52:38.952Z,101481.38
2023-03-25T21:55:06.748Z,101477.97
2023-03-25T21:57:38.458Z,101482.78
2023-03-25T22:00:08.160Z,101473.38
2023-03-25T22:02:45.572Z,101472.75
2023-03-25T22:05:14.392Z,101485.59
2023-03-25T22:07:42.221Z,101480.34
2023-03-25T22:10:10.574Z,101471.56
2023-03-25T22:12:37.495Z,101469.97
2023-03-25T22:15:04.763Z,101464.75
2023-03-25T22:17:31.685Z,101464.00
2023-03-25T22:19:58.646Z,101466.69
2023-03-25T22:22:25.636Z,101470.63
2023-03-25T22:24:52.584Z,101469.88
2023-03-25T22:27:19.605Z,101462.06
2023-03-25T22:29:46.551Z,101459.50
2023-03-25T22:32:13.542Z,101463.44
2023-03-25T22:34:40.652Z,101462.84
2023-03-25T22:37:07.704Z,101463.94
2023-03-25T22:39:34.648Z,101456.13
2023-03-25T22:42:01.582Z,101463.59
2023-03-25T22:44:28.973Z,101453.09
2023-03-25T22:46:56.550Z,101448.81
2023-03-25T22:49:24.412Z,101446.47
2023-03-25T22:51:51.814Z,101458.06
2023-03-25T22:54:18.757Z,101452.09
2023-03-25T22:56:45.821Z,101448.66
2023-03-25T22:59:14.141Z,101444.16
2023-03-25T23:01:42.267Z,101446.09
2023-03-25T23:04:09.598Z,101439.16
2023-03-25T23:06:37.413Z,101445.25
2023-03-25T23:09:06.731Z,101432.81
2023-03-25T23:11:34.632Z,101421.22
2023-03-25T23:14:11.106Z,101420.34
2023-03-25T23:16:39.220Z,101416.69
2023-03-25T23:19:07.001Z,101416.81
2023-03-25T23:21:34.564Z,101422.28
2023-03-25T23:24:03.974Z,101416.44
2023-03-25T23:26:38.979Z,101419.88
2023-03-25T23:29:09.012Z,101415.47
2023-03-25T23:31:41.504Z,101420.84
2023-03-25T23:34:12.203Z,101411.94
2023-03-25T23:36:40.109Z,101410.94
2023-03-25T23:39:10.936Z,101412.06
2023-03-25T23:41:38.368Z,101414.88
2023-03-25T23:44:06.218Z,101407.78
2023-03-25T23:46:33.927Z,101412.56
2023-03-25T23:49:04.111Z,101414.50
2023-03-25T23:51:35.589Z,101410.84
2023-03-25T23:54:03.887Z,101405.72
2023-03-25T23:56:31.529Z,101399.63
2023-03-25T23:59:00.187Z,101395.00
